Currently 62°F in Riverside (Presidential Park), California, USA
62°F
63°F / 62°F
2 mph SW
0.00"
Tuesday, September 28, 2021 5:47 AM PDT

Riverside (Presidential Park), California Weather Summary
Last 36 Hours

Temperature Winds Hourly Humidity Dewpoint
Time Report Norm Report Norm Max Gusts Precip. Rpt. Norm Rpt. Norm Pressure
1Tue 05:47 AM  62.5°F  62°F  2 mph SW  1 mph  5 mph  0.00"  83%  69%  57°F  52°F  29.92"
3Tue 05:33 AM  62.3°F  63°F  3 mph NW  1 mph  5 mph  ----  83%  69%  57°F  52°F  29.93"
Tue 05:00 AM  62.5°F  63°F  2 mph SW  1 mph  6 mph  0.00"  83%  69%  57°F  52°F  29.93"
Tue 04:00 AM  62.5°F  64°F  1 mph SW  1 mph  6 mph  0.00"  83%  67%  57°F  52°F  29.93"
Tue 03:00 AM  62.8°F  65°F  4 mph SW  1 mph  6 mph  0.00"  83%  65%  57°F  52°F  29.94"
Tue 02:00 AM  62.9°F  65°F  4 mph W  1 mph  5 mph  0.00"  83%  64%  58°F  52°F  29.96"
Tue 01:00 AM  63.0°F  67°F  2 mph SW  1 mph  6 mph  0.00"  83%  62%  58°F  53°F  29.98"
2Tue 12:08 AM  63.4°F  68°F  4 mph W  1 mph  5 mph  ----  82%  60%  58°F  53°F  29.98"
Tue 12:00 AM  63.4°F  68°F  4 mph SW  1 mph  7 mph  0.00"  82%  59%  58°F  53°F  29.98"
Mon 11:00 PM  63.4°F  69°F  4 mph NW  1 mph  6 mph  0.00"  81%  57%  57°F  53°F  29.99"
Mon 10:00 PM  63.9°F  71°F  3 mph NW  2 mph  5 mph  0.00"  80%  54%  57°F  53°F  29.99"
Mon 09:00 PM  64.2°F  74°F  calm  2 mph  5 mph  0.00"  78%  49%  57°F  53°F  29.98"
Mon 08:00 PM  64.9°F  76°F  4 mph SW  3 mph  9 mph  0.00"  77%  44%  57°F  52°F  29.96"
Mon 07:00 PM  66.1°F  79°F  3 mph SW  5 mph  11 mph  0.00"  75%  40%  58°F  52°F  29.95"
Mon 06:00 PM  68.3°F  83°F  5 mph W  7 mph  12 mph  0.00"  70%  34%  58°F  51°F  29.94"
Mon 05:00 PM  69.5°F  86°F  8 mph SW  8 mph  14 mph  0.00"  67%  30%  58°F  50°F  29.95"
Mon 04:00 PM  71.6°F  87°F  7 mph W  8 mph  14 mph  0.00"  61%  28%  57°F  49°F  29.95"
Mon 03:00 PM  71.8°F  87°F  6 mph W  7 mph  10 mph  0.00"  62%  27%  58°F  48°F  29.96"
Mon 02:00 PM  70.6°F  86°F  7 mph W  6 mph  10 mph  0.00"  65%  28%  58°F  48°F  29.98"
Mon 01:00 PM  69.8°F  85°F  3 mph W  5 mph  8 mph  0.00"  68%  30%  58°F  49°F  30.00"
Mon 12:00 PM  66.7°F  83°F  3 mph SW  3 mph  8 mph  0.00"  74%  35%  58°F  51°F  30.02"
Mon 11:00 AM  66.2°F  79°F  2 mph W  3 mph  6 mph  0.00"  76%  42%  58°F  54°F  30.03"
Mon 10:00 AM  65.2°F  75°F  3 mph SW  2 mph  4 mph  0.00"  79%  52%  58°F  55°F  30.03"
Mon 09:00 AM  64.5°F  69°F  3 mph NW  1 mph  5 mph  0.00"  81%  62%  58°F  55°F  30.02"
Mon 08:00 AM  63.6°F  64°F  2 mph W  1 mph  6 mph  0.00"  82%  70%  58°F  54°F  30.02"
Mon 07:00 AM  63.5°F  62°F  1 mph SE  1 mph  6 mph  0.00"  82%  71%  58°F  52°F  30.01"
Mon 06:00 AM  63.3°F  63°F  calm  1 mph  3 mph  0.00"  82%  70%  57°F  52°F  30.00"
Mon 05:00 AM  63.3°F  63°F  calm  1 mph  4 mph  0.00"  82%  69%  57°F  53°F  30.00"
Mon 04:00 AM  63.3°F  64°F  2 mph W  1 mph  5 mph  0.00"  82%  68%  57°F  53°F  30.01"
Mon 03:00 AM  63.2°F  65°F  calm  1 mph  7 mph  0.00"  81%  66%  57°F  53°F  30.01"
Mon 02:00 AM  63.3°F  66°F  3 mph SW  1 mph  7 mph  0.00"  82%  64%  57°F  53°F  30.02"
Mon 01:00 AM  63.2°F  67°F  2 mph SW  1 mph  7 mph  0.00"  82%  62%  57°F  53°F  30.01"
Mon 12:00 AM  63.2°F  68°F  3 mph SW  1 mph  7 mph  0.00"  81%  60%  57°F  53°F  30.02"
Sun 11:00 PM  63.8°F  70°F  3 mph SW  1 mph  5 mph  0.00"  79%  57%  57°F  53°F  30.02"
Sun 10:00 PM  64.6°F  72°F  2 mph W  2 mph  8 mph  0.00"  77%  54%  57°F  53°F  30.02"
Sun 09:00 PM  65.6°F  74°F  2 mph W  2 mph  7 mph  0.00"  75%  49%  57°F  53°F  30.01"
Sun 08:00 PM  66.6°F  77°F  3 mph SW  3 mph  9 mph  0.00"  72%  45%  57°F  53°F  29.99"
Sun 07:00 PM  67.6°F  79°F  7 mph SW  5 mph  15 mph  0.00"  69%  40%  57°F  52°F  29.98"
Sun 06:00 PM  71.7°F  83°F  8 mph W  7 mph  14 mph  0.00"  61%  35%  57°F  51°F  29.97"

  1. Current weather data. No green row appears if the current weather data is also the high or low for the current day.
  2. High temperature for the current day.
  3. Low temperature for the current day.

The Riverside (Presidential Park), California weather pages are a service of WeatherCurrents.
Copyright ©2021  WeatherCurrents. All rights reserved. - Submit questions and comments - Privacy Policy

This page automatically refreshes every 10 minutes.